sensor_id;sensor_type;location;lat;lon;timestamp;pressure;altitude;pressure_sealevel;temperature;humidity
7480;BME280;3781;42.272;22.658;2024-02-15T00:00:18;94815.06;;;1.40;100.00
7480;BME280;3781;42.272;22.658;2024-02-15T00:02:45;94789.81;;;1.34;100.00
7480;BME280;3781;42.272;22.658;2024-02-15T00:05:12;94829.91;;;1.68;100.00
7480;BME280;3781;42.272;22.658;2024-02-15T00:07:40;94824.31;;;1.77;100.00
7480;BME280;3781;42.272;22.658;2024-02-15T00:10:07;94793.84;;;1.56;100.00
7480;BME280;3781;42.272;22.658;2024-02-15T00:12:34;94836.91;;;1.65;100.00
7480;BME280;3781;42.272;22.658;2024-02-15T00:15:02;94842.91;;;1.64;100.00
7480;BME280;3781;42.272;22.658;2024-02-15T00:17:31;94783.63;;;1.38;100.00
7480;BME280;3781;42.272;22.658;2024-02-15T00:19:58;94843.75;;;1.64;100.00
7480;BME280;3781;42.272;22.658;2024-02-15T00:22:25;94840.00;;;1.71;100.00
7480;BME280;3781;42.272;22.658;2024-02-15T00:24:52;94802.72;;;1.48;100.00
7480;BME280;3781;42.272;22.658;2024-02-15T00:27:19;94817.84;;;1.70;100.00
7480;BME280;3781;42.272;22.658;2024-02-15T00:29:46;94838.91;;;1.92;100.00
7480;BME280;3781;42.272;22.658;2024-02-15T00:32:12;94840.78;;;2.06;100.00
7480;BME280;3781;42.272;22.658;2024-02-15T00:34:40;94840.78;;;2.06;100.00
7480;BME280;3781;42.272;22.658;2024-02-15T00:37:07;94839.47;;;2.14;100.00
7480;BME280;3781;42.272;22.658;2024-02-15T00:39:34;94810.03;;;2.06;100.00
7480;BME280;3781;42.272;22.658;2024-02-15T00:42:01;94794.53;;;1.92;100.00
7480;BME280;3781;42.272;22.658;2024-02-15T00:44:28;94835.34;;;2.12;100.00
7480;BME280;3781;42.272;22.658;2024-02-15T00:46:55;94829.34;;;1.96;100.00
7480;BME280;3781;42.272;22.658;2024-02-15T00:49:22;94841.09;;;2.00;100.00
7480;BME280;3781;42.272;22.658;2024-02-15T00:51:53;94838.78;;;1.95;100.00
7480;BME280;3781;42.272;22.658;2024-02-15T00:54:19;94841.09;;;2.00;100.00
7480;BME280;3781;42.272;22.658;2024-02-15T00:56:48;94839.16;;;1.88;100.00
7480;BME280;3781;42.272;22.658;2024-02-15T00:59:14;94841.28;;;1.80;100.00
7480;BME280;3781;42.272;22.658;2024-02-15T01:01:41;94845.47;;;1.81;100.00
7480;BME280;3781;42.272;22.658;2024-02-15T01:04:08;94844.25;;;1.88;100.00
7480;BME280;3781;42.272;22.658;2024-02-15T01:06:34;94852.00;;;2.03;100.00
7480;BME280;3781;42.272;22.658;2024-02-15T01:09:03;94825.03;;;1.96;100.00
7480;BME280;3781;42.272;22.658;2024-02-15T01:11:30;94839.28;;;2.02;100.00
7480;BME280;3781;42.272;22.658;2024-02-15T01:13:57;94854.03;;;2.14;100.00
7480;BME280;3781;42.272;22.658;2024-02-15T01:16:24;94735.44;;;1.46;100.00
7480;BME280;3781;42.272;22.658;2024-02-15T01:18:51;94844.47;;;2.17;100.00
7480;BME280;3781;42.272;22.658;2024-02-15T01:21:17;94856.50;;;2.15;100.00
7480;BME280;3781;42.272;22.658;2024-02-15T01:23:44;94852.72;;;2.22;100.00
7480;BME280;3781;42.272;22.658;2024-02-15T01:26:13;94844.97;;;2.24;100.00
7480;BME280;3781;42.272;22.658;2024-02-15T01:28:40;94848.00;;;2.48;98.05
7480;BME280;3781;42.272;22.658;2024-02-15T01:31:08;94830.13;;;2.46;96.99
7480;BME280;3781;42.272;22.658;2024-02-15T01:33:36;94825.22;;;2.42;97.08
7480;BME280;3781;42.272;22.658;2024-02-15T01:36:04;94848.16;;;2.60;96.12
7480;BME280;3781;42.272;22.658;2024-02-15T01:38:31;94853.31;;;2.60;96.49
7480;BME280;3781;42.272;22.658;2024-02-15T01:40:57;94845.59;;;2.60;95.58
7480;BME280;3781;42.272;22.658;2024-02-15T01:43:26;94842.22;;;2.60;95.57
7480;BME280;3781;42.272;22.658;2024-02-15T01:45:52;94832.03;;;2.58;97.02
7480;BME280;3781;42.272;22.658;2024-02-15T01:48:19;94845.13;;;2.69;97.23
7480;BME280;3781;42.272;22.658;2024-02-15T01:50:46;94837.75;;;2.63;97.35
7480;BME280;3781;42.272;22.658;2024-02-15T01:53:14;94840.75;;;2.71;97.82
7480;BME280;3781;42.272;22.658;2024-02-15T01:55:40;94841.84;;;2.35;100.00
7480;BME280;3781;42.272;22.658;2024-02-15T01:58:07;94840.59;;;2.09;100.00
7480;BME280;3781;42.272;22.658;2024-02-15T02:00:36;94798.81;;;1.76;100.00
7480;BME280;3781;42.272;22.658;2024-02-15T02:03:05;94839.94;;;2.05;100.00
7480;BME280;3781;42.272;22.658;2024-02-15T02:05:32;94843.63;;;2.17;100.00
7480;BME280;3781;42.272;22.658;2024-02-15T02:07:59;94815.78;;;2.11;100.00
7480;BME280;3781;42.272;22.658;2024-02-15T02:10:29;94840.19;;;2.34;100.00
7480;BME280;3781;42.272;22.658;2024-02-15T02:12:58;94809.25;;;2.21;100.00
7480;BME280;3781;42.272;22.658;2024-02-15T02:15:26;94821.41;;;2.33;100.00
7480;BME280;3781;42.272;22.658;2024-02-15T02:17:54;94837.81;;;2.46;100.00
7480;BME280;3781;42.272;22.658;2024-02-15T02:20:21;94817.03;;;2.35;100.00
7480;BME280;3781;42.272;22.658;2024-02-15T02:22:49;94779.72;;;2.14;100.00
7480;BME280;3781;42.272;22.658;2024-02-15T02:25:18;94838.06;;;2.57;100.00
7480;BME280;3781;42.272;22.658;2024-02-15T02:27:46;94843.03;;;2.60;100.00
7480;BME280;3781;42.272;22.658;2024-02-15T02:30:15;94807.53;;;2.37;100.00
7480;BME280;3781;42.272;22.658;2024-02-15T02:32:44;94839.06;;;2.55;100.00
7480;BME280;3781;42.272;22.658;2024-02-15T02:35:11;94849.81;;;2.61;100.00
7480;BME280;3781;42.272;22.658;2024-02-15T02:37:38;94850.81;;;2.59;100.00
7480;BME280;3781;42.272;22.658;2024-02-15T02:40:06;94833.28;;;2.51;100.00
7480;BME280;3781;42.272;22.658;2024-02-15T02:42:36;94849.06;;;2.59;100.00
7480;BME280;3781;42.272;22.658;2024-02-15T02:45:03;94855.75;;;2.46;100.00
7480;BME280;3781;42.272;22.658;2024-02-15T02:47:30;94802.28;;;2.07;100.00
7480;BME280;3781;42.272;22.658;2024-02-15T02:49:57;94838.66;;;2.14;100.00
7480;BME280;3781;42.272;22.658;2024-02-15T02:52:24;94851.47;;;2.14;100.00
7480;BME280;3781;42.272;22.658;2024-02-15T02:54:51;94849.88;;;2.11;100.00
7480;BME280;3781;42.272;22.658;2024-02-15T02:57:17;94828.16;;;1.86;100.00
7480;BME280;3781;42.272;22.658;2024-02-15T02:59:45;94738.16;;;1.26;100.00
7480;BME280;3781;42.272;22.658;2024-02-15T03:02:12;94848.31;;;1.92;100.00
7480;BME280;3781;42.272;22.658;2024-02-15T03:04:39;94845.63;;;1.78;100.00
7480;BME280;3781;42.272;22.658;2024-02-15T03:07:06;94845.47;;;1.81;100.00
7480;BME280;3781;42.272;22.658;2024-02-15T03:09:33;94659.97;;;0.71;100.00
7480;BME280;3781;42.272;22.658;2024-02-15T03:12:01;94857.25;;;1.85;100.00
7480;BME280;3781;42.272;22.658;2024-02-15T03:14:27;94835.53;;;1.75;100.00
7480;BME280;3781;42.272;22.658;2024-02-15T03:16:57;94856.94;;;1.91;100.00
7480;BME280;3781;42.272;22.658;2024-02-15T03:19:23;94857.69;;;1.76;100.00
7480;BME280;3781;42.272;22.658;2024-02-15T03:21:51;94850.38;;;1.68;100.00
7480;BME280;3781;42.272;22.658;2024-02-15T03:24:18;94850.75;;;1.78;100.00
7480;BME280;3781;42.272;22.658;2024-02-15T03:26:45;94830.88;;;1.66;100.00
7480;BME280;3781;42.272;22.658;2024-02-15T03:29:12;94838.84;;;1.25;100.00
7480;BME280;3781;42.272;22.658;2024-02-15T03:31:38;94806.91;;;0.98;100.00
7480;BME280;3781;42.272;22.658;2024-02-15T03:34:06;94862.00;;;1.22;100.00
7480;BME280;3781;42.272;22.658;2024-02-15T03:36:36;94809.13;;;0.87;100.00
7480;BME280;3781;42.272;22.658;2024-02-15T03:39:03;94840.00;;;1.01;100.00
7480;BME280;3781;42.272;22.658;2024-02-15T03:41:31;94852.78;;;1.01;100.00
7480;BME280;3781;42.272;22.658;2024-02-15T03:43:58;94847.50;;;0.68;100.00
7480;BME280;3781;42.272;22.658;2024-02-15T03:46:25;94854.91;;;0.56;100.00
7480;BME280;3781;42.272;22.658;2024-02-15T03:48:53;94853.78;;;0.43;100.00
7480;BME280;3781;42.272;22.658;2024-02-15T03:51:22;94838.31;;;0.46;100.00
7480;BME280;3781;42.272;22.658;2024-02-15T03:53:50;94816.22;;;0.45;100.00
7480;BME280;3781;42.272;22.658;2024-02-15T03:56:17;94826.72;;;0.39;100.00
7480;BME280;3781;42.272;22.658;2024-02-15T03:58:44;94854.88;;;0.19;100.00
7480;BME280;3781;42.272;22.658;2024-02-15T04:01:11;94812.16;;;-0.17;100.00
7480;BME280;3781;42.272;22.658;2024-02-15T04:03:40;94855.00;;;0.16;100.00
7480;BME280;3781;42.272;22.658;2024-02-15T04:06:07;94859.97;;;0.19;100.00
7480;BME280;3781;42.272;22.658;2024-02-15T04:08:36;94859.97;;;0.19;100.00
7480;BME280;3781;42.272;22.658;2024-02-15T04:11:04;94855.31;;;0.28;100.00
7480;BME280;3781;42.272;22.658;2024-02-15T04:13:31;94850.75;;;0.35;100.00
7480;BME280;3781;42.272;22.658;2024-02-15T04:15:58;94855.59;;;0.41;100.00
7480;BME280;3781;42.272;22.658;2024-02-15T04:18:25;94817.88;;;0.27;100.00
7480;BME280;3781;42.272;22.658;2024-02-15T04:20:52;94860.84;;;0.56;100.00
7480;BME280;3781;42.272;22.658;2024-02-15T04:23:18;94855.19;;;0.68;100.00
7480;BME280;3781;42.272;22.658;2024-02-15T04:25:47;94859.31;;;0.71;100.00
7480;BME280;3781;42.272;22.658;2024-02-15T04:28:17;94841.72;;;0.65;100.00
7480;BME280;3781;42.272;22.658;2024-02-15T04:30:43;94690.16;;;-0.46;100.00
7480;BME280;3781;42.272;22.658;2024-02-15T04:33:12;94789.16;;;0.04;100.00
7480;BME280;3781;42.272;22.658;2024-02-15T04:35:41;94866.28;;;0.30;100.00
7480;BME280;3781;42.272;22.658;2024-02-15T04:38:07;94857.22;;;0.23;100.00
7480;BME280;3781;42.272;22.658;2024-02-15T04:40:34;94866.09;;;0.35;100.00
7480;BME280;3781;42.272;22.658;2024-02-15T04:43:04;94872.56;;;0.23;100.00
7480;BME280;3781;42.272;22.658;2024-02-15T04:45:32;94838.31;;;0.09;100.00
7480;BME280;3781;42.272;22.658;2024-02-15T04:47:59;94871.81;;;0.40;100.00
7480;BME280;3781;42.272;22.658;2024-02-15T04:50:27;94874.44;;;0.57;100.00
7480;BME280;3781;42.272;22.658;2024-02-15T04:52:54;94869.66;;;0.68;100.00
7480;BME280;3781;42.272;22.658;2024-02-15T04:55:21;94869.13;;;0.61;100.00
7480;BME280;3781;42.272;22.658;2024-02-15T04:57:48;94878.53;;;0.80;100.00
7480;BME280;3781;42.272;22.658;2024-02-15T05:00:22;94877.56;;;0.82;100.00
7480;BME280;3781;42.272;22.658;2024-02-15T05:02:51;94875.22;;;0.77;100.00
7480;BME280;3781;42.272;22.658;2024-02-15T05:05:18;94888.81;;;0.78;100.00
7480;BME280;3781;42.272;22.658;2024-02-15T05:07:45;94876.56;;;0.66;100.00
7480;BME280;3781;42.272;22.658;2024-02-15T05:10:14;94892.63;;;0.69;100.00
7480;BME280;3781;42.272;22.658;2024-02-15T05:12:43;94831.84;;;0.39;100.00
7480;BME280;3781;42.272;22.658;2024-02-15T05:15:14;94888.06;;;0.76;100.00
7480;BME280;3781;42.272;22.658;2024-02-15T05:17:44;94901.44;;;0.81;100.00
7480;BME280;3781;42.272;22.658;2024-02-15T05:20:11;94875.03;;;0.81;100.00
7480;BME280;3781;42.272;22.658;2024-02-15T05:22:39;94899.22;;;0.92;100.00
7480;BME280;3781;42.272;22.658;2024-02-15T05:25:09;94898.81;;;1.01;100.00
7480;BME280;3781;42.272;22.658;2024-02-15T05:27:37;94898.53;;;1.07;100.00
7480;BME280;3781;42.272;22.658;2024-02-15T05:30:05;94882.31;;;1.08;100.00
7480;BME280;3781;42.272;22.658;2024-02-15T05:32:33;94902.63;;;1.28;100.00
7480;BME280;3781;42.272;22.658;2024-02-15T05:35:08;94904.41;;;1.09;100.00
7480;BME280;3781;42.272;22.658;2024-02-15T05:37:38;94916.94;;;0.78;100.00
7480;BME280;3781;42.272;22.658;2024-02-15T05:40:06;94894.94;;;0.74;100.00
7480;BME280;3781;42.272;22.658;2024-02-15T05:42:40;94896.50;;;0.78;100.00
7480;BME280;3781;42.272;22.658;2024-02-15T05:45:29;94919.28;;;1.01;100.00
7480;BME280;3781;42.272;22.658;2024-02-15T05:47:58;94929.38;;;1.04;100.00
7480;BME280;3781;42.272;22.658;2024-02-15T05:50:27;94919.81;;;1.08;100.00
7480;BME280;3781;42.272;22.658;2024-02-15T05:52:55;94936.94;;;1.24;100.00
7480;BME280;3781;42.272;22.658;2024-02-15T05:55:23;94866.38;;;0.85;100.00
7480;BME280;3781;42.272;22.658;2024-02-15T05:57:52;94908.22;;;1.19;100.00
7480;BME280;3781;42.272;22.658;2024-02-15T06:00:21;94902.47;;;1.14;100.00
7480;BME280;3781;42.272;22.658;2024-02-15T06:02:48;94949.66;;;1.44;100.00
7480;BME280;3781;42.272;22.658;2024-02-15T06:05:16;94947.00;;;1.46;100.00
7480;BME280;3781;42.272;22.658;2024-02-15T06:07:45;94929.09;;;1.46;100.00
7480;BME280;3781;42.272;22.658;2024-02-15T06:10:12;94947.66;;;1.68;100.00
7480;BME280;3781;42.272;22.658;2024-02-15T06:12:40;94945.63;;;1.75;100.00
7480;BME280;3781;42.272;22.658;2024-02-15T06:15:08;94908.50;;;1.66;100.00
7480;BME280;3781;42.272;22.658;2024-02-15T06:17:40;94953.09;;;1.96;100.00
7480;BME280;3781;42.272;22.658;2024-02-15T06:20:11;94960.13;;;2.10;100.00
7480;BME280;3781;42.272;22.658;2024-02-15T06:22:40;94970.28;;;2.11;100.00
7480;BME280;3781;42.272;22.658;2024-02-15T06:25:09;94949.25;;;2.05;100.00
7480;BME280;3781;42.272;22.658;2024-02-15T06:27:36;94875.75;;;1.73;100.00
7480;BME280;3781;42.272;22.658;2024-02-15T06:30:11;94755.00;;;1.13;100.00
7480;BME280;3781;42.272;22.658;2024-02-15T06:32:56;94971.06;;;2.63;100.00
7480;BME280;3781;42.272;22.658;2024-02-15T06:35:41;94974.41;;;2.65;100.00
7480;BME280;3781;42.272;22.658;2024-02-15T06:38:28;94939.59;;;2.44;100.00
7480;BME280;3781;42.272;22.658;2024-02-15T06:41:14;94967.69;;;2.63;100.00
7480;BME280;3781;42.272;22.658;2024-02-15T06:43:40;94972.41;;;2.70;100.00
7480;BME280;3781;42.272;22.658;2024-02-15T06:46:07;94981.94;;;3.17;97.70
7480;BME280;3781;42.272;22.658;2024-02-15T06:48:36;94972.56;;;3.94;94.06
7480;BME280;3781;42.272;22.658;2024-02-15T06:51:03;94933.28;;;4.21;86.75
7480;BME280;3781;42.272;22.658;2024-02-15T06:53:30;94966.41;;;4.70;84.19
7480;BME280;3781;42.272;22.658;2024-02-15T06:55:57;94984.19;;;5.02;78.87
7480;BME280;3781;42.272;22.658;2024-02-15T06:58:25;94979.94;;;5.84;76.10
7480;BME280;3781;42.272;22.658;2024-02-15T07:00:53;94987.81;;;5.81;72.00
7480;BME280;3781;42.272;22.658;2024-02-15T07:03:20;94988.22;;;6.29;71.12
7480;BME280;3781;42.272;22.658;2024-02-15T07:05:48;94969.22;;;6.81;66.47
7480;BME280;3781;42.272;22.658;2024-02-15T07:08:15;94993.75;;;7.50;63.25
7480;BME280;3781;42.272;22.658;2024-02-15T07:10:42;94997.72;;;8.03;61.03
7480;BME280;3781;42.272;22.658;2024-02-15T07:13:08;94997.88;;;9.05;58.34
7480;BME280;3781;42.272;22.658;2024-02-15T07:15:44;94877.28;;;9.35;54.01
7480;BME280;3781;42.272;22.658;2024-02-15T07:18:24;95005.59;;;10.38;50.78
7480;BME280;3781;42.272;22.658;2024-02-15T07:21:12;94859.78;;;10.22;50.26
7480;BME280;3781;42.272;22.658;2024-02-15T07:27:11;94804.63;;;10.09;47.72
7480;BME280;3781;42.272;22.658;2024-02-15T07:29:51;94870.56;;;10.80;46.83
7480;BME280;3781;42.272;22.658;2024-02-15T07:32:19;94806.13;;;10.74;46.71
7480;BME280;3781;42.272;22.658;2024-02-15T07:34:46;94880.88;;;10.70;46.67
7480;BME280;3781;42.272;22.658;2024-02-15T07:37:13;94882.72;;;11.09;45.84
7480;BME280;3781;42.272;22.658;2024-02-15T07:39:41;94899.69;;;11.83;45.14
7480;BME280;3781;42.272;22.658;2024-02-15T07:42:21;94776.69;;;10.63;45.67
7480;BME280;3781;42.272;22.658;2024-02-15T07:44:50;94938.66;;;12.33;45.08
7480;BME280;3781;42.272;22.658;2024-02-15T07:47:19;94869.00;;;12.44;46.28
7480;BME280;3781;42.272;22.658;2024-02-15T07:49:49;94872.91;;;12.96;42.02
7480;BME280;3781;42.272;22.658;2024-02-15T07:52:16;94920.81;;;13.41;40.98
7480;BME280;3781;42.272;22.658;2024-02-15T07:54:43;94978.88;;;14.25;41.58
7480;BME280;3781;42.272;22.658;2024-02-15T07:57:10;94924.97;;;13.89;40.73
7480;BME280;3781;42.272;22.658;2024-02-15T07:59:40;94902.78;;;12.92;41.06
7480;BME280;3781;42.272;22.658;2024-02-15T08:02:07;94814.91;;;12.19;41.03
7480;BME280;3781;42.272;22.658;2024-02-15T08:04:39;94858.03;;;12.31;42.47
7480;BME280;3781;42.272;22.658;2024-02-15T08:07:12;94876.63;;;12.84;41.80
7480;BME280;3781;42.272;22.658;2024-02-15T08:09:41;94883.03;;;13.45;41.59
7480;BME280;3781;42.272;22.658;2024-02-15T08:12:09;94964.16;;;14.86;39.62
7480;BME280;3781;42.272;22.658;2024-02-15T08:14:36;94923.81;;;15.15;37.72
7480;BME280;3781;42.272;22.658;2024-02-15T08:17:05;94881.25;;;15.04;37.39
7480;BME280;3781;42.272;22.658;2024-02-15T08:19:33;94857.56;;;15.73;36.80
7480;BME280;3781;42.272;22.658;2024-02-15T08:22:07;94985.34;;;16.04;36.96
7480;BME280;3781;42.272;22.658;2024-02-15T08:24:35;94898.31;;;15.76;37.25
7480;BME280;3781;42.272;22.658;2024-02-15T08:27:02;94857.66;;;15.56;36.15
7480;BME280;3781;42.272;22.658;2024-02-15T08:29:30;94909.91;;;16.15;36.26
7480;BME280;3781;42.272;22.658;2024-02-15T08:31:57;94835.88;;;15.22;36.64
7480;BME280;3781;42.272;22.658;2024-02-15T08:34:24;94961.22;;;15.92;36.03
7480;BME280;3781;42.272;22.658;2024-02-15T08:36:54;94865.41;;;15.40;36.35
7480;BME280;3781;42.272;22.658;2024-02-15T08:39:25;94900.09;;;15.16;36.92
7480;BME280;3781;42.272;22.658;2024-02-15T08:41:52;94956.91;;;16.83;34.99
7480;BME280;3781;42.272;22.658;2024-02-15T08:44:19;94945.50;;;17.47;32.91
7480;BME280;3781;42.272;22.658;2024-02-15T08:46:47;94821.53;;;17.28;32.44
7480;BME280;3781;42.272;22.658;2024-02-15T08:49:14;94874.09;;;18.29;31.50
7480;BME280;3781;42.272;22.658;2024-02-15T08:51:41;94832.72;;;17.06;32.66
7480;BME280;3781;42.272;22.658;2024-02-15T08:54:12;94858.38;;;15.06;34.46
7480;BME280;3781;42.272;22.658;2024-02-15T08:56:40;94815.59;;;14.21;35.60
7480;BME280;3781;42.272;22.658;2024-02-15T08:59:09;94851.16;;;14.57;35.11
7480;BME280;3781;42.272;22.658;2024-02-15T09:01:39;94834.63;;;13.96;36.09
7480;BME280;3781;42.272;22.658;2024-02-15T09:04:06;94815.88;;;11.80;39.05
7480;BME280;3781;42.272;22.658;2024-02-15T09:06:40;94730.09;;;11.59;39.06
7480;BME280;3781;42.272;22.658;2024-02-15T09:09:28;94768.81;;;12.39;37.84
7480;BME280;3781;42.272;22.658;2024-02-15T09:12:03;94894.44;;;12.88;38.95
7480;BME280;3781;42.272;22.658;2024-02-15T09:14:31;94861.13;;;12.73;39.19
7480;BME280;3781;42.272;22.658;2024-02-15T09:17:03;94855.28;;;13.44;36.64
7480;BME280;3781;42.272;22.658;2024-02-15T09:19:53;94907.34;;;14.53;35.28
7480;BME280;3781;42.272;22.658;2024-02-15T09:22:29;94855.44;;;14.84;34.65
7480;BME280;3781;42.272;22.658;2024-02-15T09:25:02;94750.72;;;14.34;35.13
7480;BME280;3781;42.272;22.658;2024-02-15T09:27:37;94928.47;;;15.88;34.32
7480;BME280;3781;42.272;22.658;2024-02-15T09:30:07;94816.91;;;15.20;34.54
7480;BME280;3781;42.272;22.658;2024-02-15T09:32:35;94741.75;;;13.93;35.19
7480;BME280;3781;42.272;22.658;2024-02-15T09:35:05;94813.81;;;15.24;35.04
7480;BME280;3781;42.272;22.658;2024-02-15T09:37:33;94797.50;;;15.72;33.44
7480;BME280;3781;42.272;22.658;2024-02-15T09:40:36;94774.59;;;16.14;31.94
7480;BME280;3781;42.272;22.658;2024-02-15T09:43:09;94828.00;;;16.94;31.47
7480;BME280;3781;42.272;22.658;2024-02-15T09:45:42;94827.84;;;16.87;31.59
7480;BME280;3781;42.272;22.658;2024-02-15T09:48:10;94921.03;;;17.70;31.17
7480;BME280;3781;42.272;22.658;2024-02-15T09:50:39;94918.00;;;17.81;31.31
7480;BME280;3781;42.272;22.658;2024-02-15T09:53:08;94912.38;;;17.92;30.44
7480;BME280;3781;42.272;22.658;2024-02-15T09:55:36;94916.56;;;17.71;30.91
7480;BME280;3781;42.272;22.658;2024-02-15T09:58:08;94849.44;;;17.68;30.88
7480;BME280;3781;42.272;22.658;2024-02-15T10:00:38;94879.09;;;17.85;30.50
7480;BME280;3781;42.272;22.658;2024-02-15T10:03:06;94851.56;;;17.10;31.55
7480;BME280;3781;42.272;22.658;2024-02-15T10:05:33;94893.88;;;19.44;29.00
7480;BME280;3781;42.272;22.658;2024-02-15T10:08:00;94891.81;;;21.19;27.50
7480;BME280;3781;42.272;22.658;2024-02-15T10:10:27;94889.25;;;21.87;25.69
7480;BME280;3781;42.272;22.658;2024-02-15T10:12:55;94887.84;;;21.91;25.37
7480;BME280;3781;42.272;22.658;2024-02-15T10:15:31;94886.38;;;22.36;24.63
7480;BME280;3781;42.272;22.658;2024-02-15T10:18:00;94868.38;;;22.66;24.50
7480;BME280;3781;42.272;22.658;2024-02-15T10:20:27;94788.66;;;23.33;23.91
7480;BME280;3781;42.272;22.658;2024-02-15T10:23:09;94835.25;;;25.49;22.47
7480;BME280;3781;42.272;22.658;2024-02-15T10:25:36;94846.56;;;26.94;20.86
7480;BME280;3781;42.272;22.658;2024-02-15T10:28:04;94793.22;;;26.41;20.14
7480;BME280;3781;42.272;22.658;2024-02-15T10:30:37;94849.91;;;25.58;21.52
7480;BME280;3781;42.272;22.658;2024-02-15T10:33:04;94860.38;;;26.43;20.55
7480;BME280;3781;42.272;22.658;2024-02-15T10:35:33;94838.53;;;27.70;19.68
7480;BME280;3781;42.272;22.658;2024-02-15T10:38:07;94845.09;;;28.82;18.49
7480;BME280;3781;42.272;22.658;2024-02-15T10:40:35;94852.13;;;29.83;18.09
7480;BME280;3781;42.272;22.658;2024-02-15T10:43:03;94854.88;;;29.21;17.88
7480;BME280;3781;42.272;22.658;2024-02-15T10:45:31;94831.53;;;28.04;18.20
7480;BME280;3781;42.272;22.658;2024-02-15T10:47:59;94821.25;;;26.73;19.34
7480;BME280;3781;42.272;22.658;2024-02-15T10:50:39;94742.47;;;28.55;18.55
7480;BME280;3781;42.272;22.658;2024-02-15T10:53:21;94720.13;;;27.25;18.65
7480;BME280;3781;42.272;22.658;2024-02-15T10:56:02;94755.00;;;28.38;17.90
7480;BME280;3781;42.272;22.658;2024-02-15T10:58:40;94664.41;;;28.36;17.86
7480;BME280;3781;42.272;22.658;2024-02-15T11:01:12;94755.50;;;27.43;18.07
7480;BME280;3781;42.272;22.658;2024-02-15T11:03:50;94807.94;;;26.14;19.79
7480;BME280;3781;42.272;22.658;2024-02-15T11:06:18;94661.47;;;24.02;20.77
7480;BME280;3781;42.272;22.658;2024-02-15T11:08:47;94812.94;;;26.04;20.11
7480;BME280;3781;42.272;22.658;2024-02-15T11:11:15;94810.97;;;26.88;20.37
7480;BME280;3781;42.272;22.658;2024-02-15T11:13:42;94777.75;;;27.03;20.69
7480;BME280;3781;42.272;22.658;2024-02-15T11:16:10;94805.44;;;27.13;20.11
7480;BME280;3781;42.272;22.658;2024-02-15T11:18:42;94761.31;;;26.05;20.38
7480;BME280;3781;42.272;22.658;2024-02-15T11:21:12;94802.63;;;26.14;20.54
7480;BME280;3781;42.272;22.658;2024-02-15T11:23:39;94757.09;;;26.45;20.12
7480;BME280;3781;42.272;22.658;2024-02-15T11:26:10;94800.09;;;26.49;19.92
7480;BME280;3781;42.272;22.658;2024-02-15T11:28:58;94793.00;;;25.59;20.63
7480;BME280;3781;42.272;22.658;2024-02-15T11:31:53;94795.28;;;24.88;21.57
7480;BME280;3781;42.272;22.658;2024-02-15T11:34:41;94792.34;;;22.99;22.13
7480;BME280;3781;42.272;22.658;2024-02-15T11:37:09;94788.31;;;21.43;24.02
7480;BME280;3781;42.272;22.658;2024-02-15T11:39:42;94786.53;;;21.16;24.75
7480;BME280;3781;42.272;22.658;2024-02-15T11:42:28;94779.97;;;20.14;26.29
7480;BME280;3781;42.272;22.658;2024-02-15T11:45:05;94779.38;;;20.33;26.33
7480;BME280;3781;42.272;22.658;2024-02-15T11:47:36;94777.25;;;20.22;27.20
7480;BME280;3781;42.272;22.658;2024-02-15T11:50:05;94750.66;;;20.02;27.01
7480;BME280;3781;42.272;22.658;2024-02-15T11:52:38;94773.41;;;20.73;26.66
7480;BME280;3781;42.272;22.658;2024-02-15T11:55:07;94781.97;;;20.75;26.21
7480;BME280;3781;42.272;22.658;2024-02-15T11:57:36;94748.84;;;21.35;25.46
7480;BME280;3781;42.272;22.658;2024-02-15T12:00:21;94782.66;;;21.46;25.16
7480;BME280;3781;42.272;22.658;2024-02-15T12:03:10;94719.56;;;21.36;24.52
7480;BME280;3781;42.272;22.658;2024-02-15T12:05:54;94735.47;;;22.03;24.75
7480;BME280;3781;42.272;22.658;2024-02-15T12:08:57;94771.56;;;22.30;24.48
7480;BME280;3781;42.272;22.658;2024-02-15T12:11:42;94682.66;;;21.62;24.79
7480;BME280;3781;42.272;22.658;2024-02-15T12:14:26;94774.19;;;22.24;24.65
7480;BME280;3781;42.272;22.658;2024-02-15T12:23:46;94758.25;;;21.44;24.17
7480;BME280;3781;42.272;22.658;2024-02-15T12:26:13;94753.41;;;21.54;24.74
7480;BME280;3781;42.272;22.658;2024-02-15T12:28:41;94759.84;;;20.76;25.88
7480;BME280;3781;42.272;22.658;2024-02-15T12:31:09;94759.84;;;20.76;25.29
7480;BME280;3781;42.272;22.658;2024-02-15T12:33:36;94738.41;;;20.92;25.36
7480;BME280;3781;42.272;22.658;2024-02-15T12:36:07;94749.94;;;21.13;25.33
7480;BME280;3781;42.272;22.658;2024-02-15T12:38:34;94763.50;;;21.37;25.64
7480;BME280;3781;42.272;22.658;2024-02-15T12:41:04;94764.31;;;21.03;25.04
7480;BME280;3781;42.272;22.658;2024-02-15T12:43:44;94756.53;;;21.30;24.60
7480;BME280;3781;42.272;22.658;2024-02-15T12:46:11;94741.22;;;20.84;25.70
7480;BME280;3781;42.272;22.658;2024-02-15T12:48:38;94755.03;;;20.86;26.31
7480;BME280;3781;42.272;22.658;2024-02-15T12:51:13;94742.53;;;21.36;24.76
7480;BME280;3781;42.272;22.658;2024-02-15T12:53:39;94744.69;;;21.19;24.63
7480;BME280;3781;42.272;22.658;2024-02-15T12:56:08;94696.13;;;20.86;25.52
7480;BME280;3781;42.272;22.658;2024-02-15T12:58:35;94747.81;;;21.01;25.43
7480;BME280;3781;42.272;22.658;2024-02-15T13:01:04;94748.22;;;20.98;24.93
7480;BME280;3781;42.272;22.658;2024-02-15T13:03:31;94738.59;;;21.19;25.46
7480;BME280;3781;42.272;22.658;2024-02-15T13:05:58;94737.63;;;21.80;25.36
7480;BME280;3781;42.272;22.658;2024-02-15T13:08:24;94725.53;;;22.44;23.81
7480;BME280;3781;42.272;22.658;2024-02-15T13:10:51;94735.50;;;22.42;23.07
7480;BME280;3781;42.272;22.658;2024-02-15T13:13:20;94724.31;;;22.40;23.60
7480;BME280;3781;42.272;22.658;2024-02-15T13:15:48;94734.50;;;22.37;23.48
7480;BME280;3781;42.272;22.658;2024-02-15T13:18:14;94731.25;;;20.10;25.32
7480;BME280;3781;42.272;22.658;2024-02-15T13:20:43;94732.63;;;19.85;25.63
7480;BME280;3781;42.272;22.658;2024-02-15T13:23:10;94734.75;;;20.38;25.08
7480;BME280;3781;42.272;22.658;2024-02-15T13:25:44;94714.03;;;20.90;24.92
7480;BME280;3781;42.272;22.658;2024-02-15T13:28:11;94722.34;;;21.69;24.08
7480;BME280;3781;42.272;22.658;2024-02-15T13:30:40;94728.84;;;21.73;24.08
7480;BME280;3781;42.272;22.658;2024-02-15T13:33:08;94715.34;;;22.15;23.72
7480;BME280;3781;42.272;22.658;2024-02-15T13:35:35;94731.66;;;22.45;23.68